createdAt,value
2017-11-29T00:01:51.741Z,19.17
2017-11-29T00:04:19.920Z,17.37
2017-11-29T00:06:48.014Z,15.73
2017-11-29T00:09:16.102Z,18.47
2017-11-29T00:11:44.232Z,19.00
2017-11-29T00:14:12.328Z,19.33
2017-11-29T00:16:40.685Z,20.17
2017-11-29T00:19:08.821Z,18.40
2017-11-29T00:21:37.029Z,19.20
2017-11-29T00:24:05.164Z,16.73
2017-11-29T00:26:33.345Z,18.33
2017-11-29T00:29:01.419Z,21.60
2017-11-29T00:31:29.519Z,15.20
2017-11-29T00:33:57.585Z,17.87
2017-11-29T00:36:25.656Z,20.20
2017-11-29T00:38:53.756Z,18.53
2017-11-29T00:41:21.845Z,21.23
2017-11-29T00:43:49.916Z,13.80
2017-11-29T00:46:18.025Z,19.00
2017-11-29T00:48:46.129Z,18.67
2017-11-29T00:51:14.204Z,19.00
2017-11-29T00:53:42.274Z,20.47
2017-11-29T00:56:10.369Z,14.27
2017-11-29T00:58:38.445Z,16.93
2017-11-29T01:01:06.549Z,13.57
2017-11-29T01:03:34.628Z,16.60
2017-11-29T01:06:02.709Z,17.73
2017-11-29T01:08:30.794Z,15.80
2017-11-29T01:11:00.013Z,17.73
2017-11-29T01:13:28.147Z,16.27
2017-11-29T01:15:56.208Z,14.70
2017-11-29T01:18:24.418Z,14.60
2017-11-29T01:20:52.624Z,16.70
2017-11-29T01:23:20.710Z,14.37
2017-11-29T01:25:48.786Z,14.77
2017-11-29T01:28:17.692Z,16.37
2017-11-29T01:30:45.976Z,18.00
2017-11-29T01:33:14.281Z,18.27
2017-11-29T01:35:42.355Z,15.40
2017-11-29T01:38:10.442Z,18.10
2017-11-29T01:40:38.526Z,18.00
2017-11-29T01:43:06.590Z,23.40
2017-11-29T01:45:34.687Z,15.20
2017-11-29T01:48:03.544Z,18.17
2017-11-29T01:50:31.634Z,18.93
2017-11-29T01:52:59.723Z,15.93
2017-11-29T01:55:28.588Z,16.80
2017-11-29T01:57:56.661Z,16.60
2017-11-29T02:00:24.728Z,17.37
2017-11-29T02:02:53.748Z,13.33
2017-11-29T02:05:22.585Z,18.33
2017-11-29T02:07:50.668Z,21.97
2017-11-29T02:10:19.692Z,16.10
2017-11-29T02:12:47.874Z,15.77
2017-11-29T02:15:15.955Z,15.70
2017-11-29T02:17:44.069Z,22.27
2017-11-29T02:20:12.365Z,20.70
2017-11-29T02:22:40.526Z,15.63
2017-11-29T02:25:08.775Z,24.97
2017-11-29T02:27:36.931Z,15.10
2017-11-29T02:30:05.774Z,17.87
2017-11-29T02:32:34.300Z,15.23
2017-11-29T02:35:02.364Z,15.50
2017-11-29T02:37:30.600Z,21.63
2017-11-29T02:40:16.532Z,21.73
2017-11-29T02:42:45.411Z,19.57
2017-11-29T02:45:17.195Z,19.20
2017-11-29T02:47:46.062Z,16.20
2017-11-29T02:50:14.185Z,14.17
2017-11-29T02:52:42.293Z,15.43
2017-11-29T02:55:10.371Z,17.80
2017-11-29T02:57:38.462Z,17.23
2017-11-29T03:00:06.534Z,22.90
2017-11-29T03:02:34.642Z,20.87
2017-11-29T03:05:02.965Z,15.63
2017-11-29T03:07:31.040Z,19.30
2017-11-29T03:09:59.175Z,19.83
2017-11-29T03:12:27.240Z,18.87
2017-11-29T03:14:55.345Z,19.90
2017-11-29T03:17:23.473Z,27.80
2017-11-29T03:19:51.572Z,18.07
2017-11-29T03:22:19.655Z,17.67
2017-11-29T03:24:47.741Z,26.53
2017-11-29T03:27:15.835Z,19.30
2017-11-29T03:29:43.981Z,17.77
2017-11-29T03:32:12.143Z,17.83
2017-11-29T03:34:40.228Z,24.13
2017-11-29T03:37:08.312Z,19.87
2017-11-29T03:39:36.495Z,20.30
2017-11-29T03:42:04.561Z,24.60
2017-11-29T03:44:32.649Z,21.70
2017-11-29T03:47:00.725Z,21.60
2017-11-29T03:49:28.794Z,22.27
2017-11-29T03:51:56.884Z,18.53
2017-11-29T03:54:24.954Z,22.30
2017-11-29T03:56:54.168Z,22.17
2017-11-29T03:59:22.245Z,21.10
2017-11-29T04:01:50.316Z,23.97
2017-11-29T04:04:18.411Z,17.93
2017-11-29T04:06:46.496Z,18.80
2017-11-29T04:09:14.588Z,19.53
2017-11-29T04:11:42.665Z,20.00
2017-11-29T04:14:11.527Z,20.50
2017-11-29T04:16:39.649Z,19.40
2017-11-29T04:19:07.722Z,22.03
2017-11-29T04:21:35.866Z,17.90
2017-11-29T04:24:04.184Z,19.53
2017-11-29T04:26:32.653Z,18.20
2017-11-29T04:29:00.721Z,16.23
2017-11-29T04:31:29.727Z,22.10
2017-11-29T04:33:57.814Z,19.20
2017-11-29T04:36:25.887Z,22.33
2017-11-29T04:38:53.982Z,20.37
2017-11-29T04:41:22.049Z,17.17
2017-11-29T04:43:50.136Z,19.17
2017-11-29T04:46:18.223Z,26.07
2017-11-29T04:48:47.093Z,18.57
2017-11-29T04:51:15.164Z,18.97
2017-11-29T04:53:43.261Z,19.87
2017-11-29T04:56:12.106Z,21.33
2017-11-29T04:58:40.178Z,21.20
2017-11-29T05:01:08.274Z,19.80
2017-11-29T05:03:36.345Z,20.03
2017-11-29T05:06:04.457Z,20.10
2017-11-29T05:08:32.543Z,23.10
2017-11-29T05:11:00.657Z,20.47
2017-11-29T05:13:28.741Z,22.57
2017-11-29T05:15:56.844Z,24.50
2017-11-29T05:18:24.974Z,30.77
2017-11-29T05:20:53.065Z,26.03
2017-11-29T05:23:21.133Z,23.90
2017-11-29T05:25:49.205Z,21.83
2017-11-29T05:28:17.288Z,24.87
2017-11-29T05:30:46.242Z,25.60
2017-11-29T05:33:14.398Z,23.43
2017-11-29T05:35:42.467Z,29.63
2017-11-29T05:38:10.615Z,30.70
2017-11-29T05:40:39.445Z,29.43
2017-11-29T05:43:08.518Z,28.80
2017-11-29T05:45:36.593Z,29.93
2017-11-29T05:48:04.695Z,30.67
2017-11-29T05:50:32.770Z,32.83
2017-11-29T05:53:00.849Z,30.63
2017-11-29T05:55:28.945Z,32.43
2017-11-29T05:57:57.054Z,28.57
2017-11-29T06:00:25.161Z,33.73
2017-11-29T06:02:53.228Z,34.07
2017-11-29T06:05:21.328Z,29.80
2017-11-29T06:07:49.394Z,33.07
2017-11-29T06:10:17.484Z,31.97
2017-11-29T06:12:45.561Z,31.80
2017-11-29T06:15:13.645Z,36.20
2017-11-29T06:17:41.720Z,39.67
2017-11-29T06:20:09.825Z,32.43
2017-11-29T06:22:37.900Z,33.30
2017-11-29T06:25:05.973Z,37.30
2017-11-29T06:27:34.233Z,37.60
2017-11-29T06:30:02.301Z,34.40
2017-11-29T06:32:30.396Z,31.33
2017-11-29T06:34:58.689Z,33.90
2017-11-29T06:37:27.265Z,42.47
2017-11-29T06:39:55.346Z,38.20
2017-11-29T06:42:23.423Z,35.23
2017-11-29T06:44:52.451Z,43.40
2017-11-29T06:47:20.623Z,40.27
2017-11-29T06:49:48.865Z,39.07
2017-11-29T06:52:16.942Z,40.60
2017-11-29T06:54:45.036Z,42.40
2017-11-29T06:57:13.874Z,41.77
2017-11-29T06:59:41.961Z,36.47
2017-11-29T07:02:10.032Z,49.23
2017-11-29T07:04:38.128Z,41.90
2017-11-29T07:07:06.989Z,36.03
2017-11-29T07:09:35.072Z,43.83
2017-11-29T07:12:03.168Z,39.77
2017-11-29T07:14:32.006Z,44.73
2017-11-29T07:17:00.095Z,45.27
2017-11-29T07:19:28.170Z,38.23
2017-11-29T07:21:56.284Z,48.00
2017-11-29T07:24:24.357Z,50.50
2017-11-29T07:26:52.429Z,42.00
2017-11-29T07:29:21.293Z,44.13
2017-11-29T07:31:49.856Z,39.70
2017-11-29T07:34:17.936Z,46.47
2017-11-29T07:36:46.054Z,42.93
2017-11-29T07:39:14.364Z,40.67
2017-11-29T07:41:42.501Z,43.73
2017-11-29T07:44:11.129Z,44.90
2017-11-29T07:46:39.206Z,44.20
2017-11-29T07:49:07.297Z,47.00
2017-11-29T07:51:35.377Z,48.27
2017-11-29T07:54:03.518Z,46.87
2017-11-29T07:56:31.584Z,41.37
2017-11-29T07:58:59.693Z,43.70
2017-11-29T08:01:27.768Z,50.53
2017-11-29T08:03:55.856Z,44.13
2017-11-29T08:06:23.933Z,49.27
2017-11-29T08:08:52.037Z,46.73
2017-11-29T08:11:20.106Z,43.80
2017-11-29T08:13:48.193Z,47.83
2017-11-29T08:16:16.304Z,39.23
2017-11-29T08:18:45.148Z,39.00
2017-11-29T08:21:13.240Z,35.93
2017-11-29T08:23:41.325Z,51.53
2017-11-29T08:26:09.414Z,36.93
2017-11-29T08:28:37.498Z,31.87
2017-11-29T08:31:06.349Z,37.40
2017-11-29T08:33:34.463Z,36.90
2017-11-29T08:36:03.476Z,39.50
2017-11-29T08:38:31.581Z,37.30
2017-11-29T08:40:59.966Z,38.63
2017-11-29T08:43:28.180Z,43.90
2017-11-29T08:45:57.024Z,39.40
2017-11-29T08:48:25.259Z,39.80
2017-11-29T08:50:53.340Z,39.63
2017-11-29T08:53:21.760Z,50.13
2017-11-29T08:55:50.066Z,45.63
2017-11-29T08:58:18.146Z,59.20
2017-11-29T09:00:47.061Z,56.27
2017-11-29T09:03:15.142Z,43.00
2017-11-29T09:05:43.253Z,63.60
2017-11-29T09:08:11.328Z,51.60
2017-11-29T09:10:39.406Z,48.97
2017-11-29T09:13:07.625Z,54.87
2017-11-29T09:15:35.749Z,71.27
2017-11-29T09:18:03.889Z,72.90
2017-11-29T09:20:31.968Z,60.00
2017-11-29T09:23:00.041Z,63.63
2017-11-29T09:25:28.132Z,59.13
2017-11-29T09:27:56.221Z,57.20
2017-11-29T09:30:24.499Z,50.90
2017-11-29T09:32:53.352Z,49.90
2017-11-29T09:35:21.432Z,44.93
2017-11-29T09:37:49.521Z,49.50
2017-11-29T09:40:17.609Z,58.90
2017-11-29T09:42:45.929Z,46.47
2017-11-29T09:45:14.785Z,47.13
2017-11-29T09:47:43.621Z,44.03
2017-11-29T09:50:11.727Z,45.07
2017-11-29T09:52:39.808Z,43.70
2017-11-29T09:55:07.904Z,50.40
2017-11-29T09:57:35.978Z,43.83
2017-11-29T10:00:04.048Z,46.00
2017-11-29T10:02:32.149Z,46.33
2017-11-29T10:05:00.214Z,42.73
2017-11-29T10:07:28.336Z,39.97
2017-11-29T10:09:57.169Z,46.03
2017-11-29T10:12:25.273Z,44.50
2017-11-29T10:14:53.395Z,39.47
2017-11-29T10:17:21.468Z,39.10
2017-11-29T10:19:49.600Z,44.63
2017-11-29T10:22:17.687Z,44.27
2017-11-29T10:24:45.861Z,47.93
2017-11-29T10:27:13.927Z,52.30
2017-11-29T10:29:42.006Z,48.43
2017-11-29T10:32:10.887Z,51.33
2017-11-29T10:34:39.172Z,47.33
2017-11-29T10:37:08.117Z,48.30
2017-11-29T10:39:36.192Z,47.23
2017-11-29T10:42:04.288Z,46.67
2017-11-29T10:44:32.424Z,37.97
2017-11-29T10:47:00.569Z,42.37
2017-11-29T10:49:29.441Z,42.30
2017-11-29T10:51:57.556Z,37.43
2017-11-29T10:54:25.689Z,51.23
2017-11-29T10:56:53.804Z,43.93
2017-11-29T10:59:21.889Z,40.73
2017-11-29T11:01:50.039Z,40.40
2017-11-29T11:04:18.122Z,45.30
2017-11-29T11:06:46.233Z,51.13
2017-11-29T11:09:14.324Z,46.37
2017-11-29T11:18:26.732Z,52.73
2017-11-29T11:20:54.891Z,45.53
2017-11-29T11:23:22.978Z,37.33
2017-11-29T11:25:51.125Z,45.60
2017-11-29T11:28:19.252Z,42.90
2017-11-29T11:30:47.426Z,44.83
2017-11-29T11:33:15.501Z,49.73
2017-11-29T11:35:43.604Z,39.57
2017-11-29T11:38:12.490Z,37.50
2017-11-29T11:40:41.536Z,42.37
2017-11-29T11:43:09.677Z,44.13
2017-11-29T11:45:37.784Z,40.17
2017-11-29T11:48:05.924Z,38.80
2017-11-29T11:50:34.206Z,46.93
2017-11-29T11:53:02.409Z,42.23
2017-11-29T11:55:30.474Z,47.57
2017-11-29T11:57:58.553Z,41.90
2017-11-29T12:00:26.705Z,48.37
2017-11-29T12:02:54.861Z,50.77
2017-11-29T12:05:23.005Z,42.30
2017-11-29T12:07:51.112Z,37.97
2017-11-29T12:10:19.216Z,42.20
2017-11-29T12:12:47.308Z,33.33
2017-11-29T12:15:15.397Z,35.20
2017-11-29T12:17:43.470Z,35.50
2017-11-29T12:20:11.589Z,38.00
2017-11-29T12:22:39.970Z,33.77
2017-11-29T12:25:08.057Z,35.53
2017-11-29T12:27:36.332Z,39.23
2017-11-29T12:30:04.574Z,32.10
2017-11-29T12:32:32.729Z,30.50
2017-11-29T12:35:00.909Z,36.23
2017-11-29T12:37:29.758Z,29.87
2017-11-29T12:39:57.849Z,34.53
2017-11-29T12:42:26.052Z,32.67
2017-11-29T12:44:54.142Z,26.17
2017-11-29T12:47:22.243Z,28.87
2017-11-29T12:50:08.064Z,29.50
2017-11-29T12:52:36.201Z,29.40
2017-11-29T12:55:04.281Z,29.47
2017-11-29T12:57:32.412Z,27.73
2017-11-29T13:00:00.573Z,26.63
2017-11-29T13:02:28.896Z,24.30
2017-11-29T13:04:56.963Z,19.60
2017-11-29T13:07:25.057Z,19.33
2017-11-29T13:09:53.134Z,34.93
2017-11-29T13:12:21.244Z,20.40
2017-11-29T13:14:49.320Z,14.40
2017-11-29T13:17:17.413Z,17.87
2017-11-29T13:19:45.477Z,15.43
2017-11-29T13:22:13.549Z,14.30
2017-11-29T13:24:41.658Z,15.90
2017-11-29T13:27:09.745Z,20.60
2017-11-29T13:29:37.828Z,15.97
2017-11-29T13:32:06.672Z,17.53
2017-11-29T13:34:34.760Z,22.40
2017-11-29T13:37:02.825Z,23.50
2017-11-29T13:39:30.908Z,27.13
2017-11-29T13:41:58.998Z,20.47
2017-11-29T13:44:27.135Z,20.83
2017-11-29T13:46:55.217Z,17.17
2017-11-29T13:49:23.350Z,18.70
2017-11-29T13:51:51.436Z,19.50
2017-11-29T13:54:19.515Z,23.93
2017-11-29T13:56:47.952Z,18.20
2017-11-29T13:59:16.794Z,19.00
2017-11-29T14:01:44.897Z,19.23
2017-11-29T14:04:12.969Z,20.80
2017-11-29T14:06:41.036Z,15.23
2017-11-29T14:09:09.139Z,20.67
2017-11-29T14:11:37.993Z,15.13
2017-11-29T14:14:06.070Z,17.60
2017-11-29T14:16:34.151Z,14.77
2017-11-29T14:19:02.261Z,23.93
2017-11-29T14:21:30.346Z,17.63
2017-11-29T14:23:58.443Z,20.03
2017-11-29T14:26:26.541Z,18.17
2017-11-29T14:28:54.648Z,16.07
2017-11-29T14:31:22.744Z,22.77
2017-11-29T14:33:50.841Z,29.57
2017-11-29T14:36:18.915Z,22.53
2017-11-29T14:38:47.019Z,24.67
2017-11-29T14:41:15.284Z,30.57
2017-11-29T14:43:43.487Z,29.90
2017-11-29T14:46:11.569Z,25.13
2017-11-29T14:48:39.662Z,22.70
2017-11-29T14:51:07.793Z,24.23
2017-11-29T14:53:35.856Z,21.70
2017-11-29T14:56:04.721Z,19.97
2017-11-29T14:58:32.794Z,19.90
2017-11-29T15:01:00.894Z,20.67
2017-11-29T15:03:29.273Z,17.43
2017-11-29T15:05:57.444Z,16.83
2017-11-29T15:08:26.095Z,15.50
2017-11-29T15:10:54.201Z,13.50
2017-11-29T15:13:23.034Z,16.80
2017-11-29T15:15:52.040Z,16.03
2017-11-29T15:18:20.116Z,19.33
2017-11-29T15:20:48.188Z,27.87
2017-11-29T15:23:16.301Z,24.33
2017-11-29T15:25:44.404Z,24.77
2017-11-29T15:28:12.478Z,38.63
2017-11-29T15:30:40.553Z,26.10
2017-11-29T15:33:08.692Z,24.33
2017-11-29T15:35:37.546Z,35.83
2017-11-29T15:38:05.641Z,26.43
2017-11-29T15:40:33.962Z,30.20
2017-11-29T15:43:02.055Z,33.50
2017-11-29T15:45:30.148Z,29.10
2017-11-29T15:47:58.275Z,26.70
2017-11-29T15:50:26.337Z,31.80
2017-11-29T15:52:54.409Z,27.57
2017-11-29T15:55:22.573Z,28.73
2017-11-29T15:57:51.413Z,27.67
2017-11-29T16:00:19.510Z,24.93
2017-11-29T16:02:47.581Z,30.13
2017-11-29T16:05:15.663Z,29.00
2017-11-29T16:07:44.530Z,29.50
2017-11-29T16:10:12.795Z,25.53
2017-11-29T16:12:40.889Z,35.93
2017-11-29T16:15:08.958Z,32.80
2017-11-29T16:17:37.065Z,27.50
2017-11-29T16:20:05.161Z,25.77
2017-11-29T16:22:33.241Z,27.53
2017-11-29T16:25:01.362Z,32.43
2017-11-29T16:27:29.432Z,26.90
2017-11-29T16:29:57.536Z,30.93
2017-11-29T16:32:25.644Z,35.57
2017-11-29T16:34:53.737Z,31.03
2017-11-29T16:37:21.851Z,28.83
2017-11-29T16:39:50.754Z,34.00
2017-11-29T16:42:18.844Z,37.57
2017-11-29T16:44:46.982Z,38.07
2017-11-29T16:47:15.080Z,39.43
2017-11-29T16:49:43.476Z,48.83
2017-11-29T16:52:11.569Z,43.00
2017-11-29T16:54:39.744Z,37.47
2017-11-29T16:57:07.835Z,32.30
2017-11-29T16:59:35.941Z,40.20
2017-11-29T17:02:04.017Z,35.13
2017-11-29T17:04:32.176Z,31.97
2017-11-29T17:07:00.269Z,36.37
2017-11-29T17:09:28.345Z,34.33
2017-11-29T17:11:56.492Z,34.43
2017-11-29T17:14:24.583Z,27.73
2017-11-29T17:16:52.646Z,28.60
2017-11-29T17:19:20.721Z,28.80
2017-11-29T17:21:48.852Z,33.07
2017-11-29T17:24:16.989Z,30.97
2017-11-29T17:26:45.077Z,40.33
2017-11-29T17:29:13.180Z,40.60
2017-11-29T17:31:41.262Z,39.70
2017-11-29T17:34:09.364Z,38.30
2017-11-29T17:36:37.457Z,29.80
2017-11-29T17:39:05.545Z,33.13
2017-11-29T17:41:33.661Z,28.77
2017-11-29T17:44:01.744Z,41.10
2017-11-29T17:46:29.848Z,39.80
2017-11-29T17:48:57.957Z,32.23
2017-11-29T17:51:26.050Z,34.83
2017-11-29T17:53:54.203Z,43.90
2017-11-29T17:56:23.093Z,45.50
2017-11-29T17:58:51.955Z,41.10
2017-11-29T18:01:20.063Z,39.53
2017-11-29T18:03:48.939Z,39.13
2017-11-29T18:06:17.871Z,35.87
2017-11-29T18:08:46.114Z,35.53
2017-11-29T18:11:14.669Z,39.43
2017-11-29T18:13:42.743Z,37.27
2017-11-29T18:16:10.878Z,33.97
2017-11-29T18:18:38.950Z,34.83
2017-11-29T18:21:07.061Z,43.87
2017-11-29T18:23:35.181Z,42.20
2017-11-29T18:26:03.265Z,33.90
2017-11-29T18:28:31.367Z,34.03
2017-11-29T18:30:59.465Z,35.20
2017-11-29T18:33:28.325Z,38.80
2017-11-29T18:35:56.523Z,34.70
2017-11-29T18:38:24.604Z,38.70
2017-11-29T18:40:53.489Z,50.20
2017-11-29T18:43:21.561Z,44.70
2017-11-29T18:45:49.681Z,52.13
2017-11-29T18:48:17.765Z,40.63
2017-11-29T18:50:46.052Z,36.83
2017-11-29T18:53:14.165Z,34.93
2017-11-29T18:55:43.037Z,36.83
2017-11-29T18:58:11.106Z,37.83
2017-11-29T19:00:40.109Z,35.70
2017-11-29T19:03:08.205Z,42.30
2017-11-29T19:05:37.053Z,50.97
2017-11-29T19:08:05.138Z,34.00
2017-11-29T19:10:33.442Z,29.50
2017-11-29T19:13:02.306Z,31.87
2017-11-29T19:15:30.394Z,31.33
2017-11-29T19:17:59.328Z,29.00
2017-11-29T19:20:27.425Z,25.27
2017-11-29T19:22:56.057Z,30.07
2017-11-29T19:25:25.025Z,32.77
2017-11-29T19:27:53.102Z,26.20
2017-11-29T19:30:21.194Z,26.87
2017-11-29T19:32:50.043Z,35.80
2017-11-29T19:35:18.128Z,27.53
2017-11-29T19:37:46.224Z,35.37
2017-11-29T19:40:14.310Z,27.90
2017-11-29T19:42:42.930Z,31.70
2017-11-29T19:45:11.043Z,29.10
2017-11-29T19:47:39.915Z,31.20
2017-11-29T19:50:09.056Z,28.70
2017-11-29T19:52:37.977Z,24.17
2017-11-29T19:55:06.605Z,31.00
2017-11-29T19:57:34.766Z,39.40
2017-11-29T20:00:02.856Z,32.37
2017-11-29T20:02:30.965Z,32.67
2017-11-29T20:04:59.065Z,54.87
2017-11-29T20:07:27.138Z,34.70
2017-11-29T20:09:55.239Z,30.93
2017-11-29T20:12:23.339Z,32.50
2017-11-29T20:14:51.459Z,31.30
2017-11-29T20:17:19.557Z,29.63
2017-11-29T20:19:47.714Z,31.83
2017-11-29T20:22:15.810Z,31.40
2017-11-29T20:24:43.945Z,28.63
2017-11-29T20:27:12.044Z,28.20
2017-11-29T20:29:40.170Z,31.97
2017-11-29T20:32:08.237Z,41.67
2017-11-29T20:34:36.338Z,36.17
2017-11-29T20:37:04.485Z,34.27
2017-11-29T20:39:32.594Z,30.03
2017-11-29T20:42:00.689Z,34.80
2017-11-29T20:44:28.850Z,33.70
2017-11-29T20:46:56.961Z,33.57
2017-11-29T20:49:25.035Z,31.10
2017-11-29T20:51:53.133Z,34.27
2017-11-29T20:54:21.250Z,44.90
2017-11-29T20:56:50.270Z,44.23
2017-11-29T20:59:18.354Z,36.80
2017-11-29T21:01:46.425Z,38.87
2017-11-29T21:04:14.593Z,36.63
2017-11-29T21:06:42.672Z,39.43
2017-11-29T21:09:10.770Z,35.80
2017-11-29T21:11:38.912Z,33.73
2017-11-29T21:14:06.990Z,31.83
2017-11-29T21:16:35.504Z,36.27
2017-11-29T21:19:03.568Z,43.30
2017-11-29T21:21:32.174Z,42.73
2017-11-29T21:24:00.251Z,50.57
2017-11-29T21:26:28.377Z,46.83
2017-11-29T21:28:56.571Z,41.73
2017-11-29T21:31:24.739Z,33.10
2017-11-29T21:33:52.825Z,28.97
2017-11-29T21:36:20.925Z,30.40
2017-11-29T21:38:49.022Z,27.63
2017-11-29T21:41:17.122Z,26.53
2017-11-29T21:43:45.184Z,35.10
2017-11-29T21:46:13.306Z,37.00
2017-11-29T21:48:41.428Z,32.53
2017-11-29T21:51:09.549Z,28.50
2017-11-29T21:53:37.677Z,28.03
2017-11-29T21:56:05.953Z,27.73
2017-11-29T21:58:34.212Z,31.70
2017-11-29T22:01:02.309Z,25.20
2017-11-29T22:03:30.401Z,26.70
2017-11-29T22:05:58.489Z,26.33
2017-11-29T22:08:26.596Z,42.47
2017-11-29T22:10:54.818Z,30.67
2017-11-29T22:13:22.900Z,31.13
2017-11-29T22:15:51.060Z,29.97
2017-11-29T22:18:19.112Z,26.40
2017-11-29T22:20:47.205Z,29.20
2017-11-29T22:23:15.559Z,28.33
2017-11-29T22:25:44.419Z,28.53
2017-11-29T22:28:13.263Z,32.23
2017-11-29T22:30:41.941Z,24.10
2017-11-29T22:33:10.156Z,27.53
2017-11-29T22:35:38.309Z,24.37
2017-11-29T22:38:06.534Z,24.93
2017-11-29T22:40:34.617Z,23.57
2017-11-29T22:43:02.710Z,25.13
2017-11-29T22:45:30.832Z,26.33
2017-11-29T22:47:58.949Z,26.67
2017-11-29T22:50:27.433Z,34.10
2017-11-29T22:52:55.561Z,27.17
2017-11-29T22:55:23.636Z,29.77
2017-11-29T22:57:51.725Z,27.60
2017-11-29T23:00:27.548Z,23.63
2017-11-29T23:02:56.486Z,31.80
2017-11-29T23:05:24.635Z,29.37
2017-11-29T23:07:52.854Z,28.70
2017-11-29T23:10:20.956Z,23.67
2017-11-29T23:12:49.214Z,29.30
2017-11-29T23:15:17.726Z,26.70
2017-11-29T23:17:47.585Z,31.77
2017-11-29T23:20:15.718Z,27.87
2017-11-29T23:22:44.746Z,29.90
2017-11-29T23:25:12.825Z,28.20
2017-11-29T23:27:40.898Z,28.20
2017-11-29T23:30:10.237Z,26.73
2017-11-29T23:32:38.384Z,25.53
2017-11-29T23:35:06.599Z,29.53
2017-11-29T23:37:35.464Z,25.20
2017-11-29T23:40:03.570Z,27.90
2017-11-29T23:42:32.552Z,23.53
2017-11-29T23:45:01.279Z,25.23
2017-11-29T23:47:30.167Z,26.77
2017-11-29T23:49:59.228Z,22.70
2017-11-29T23:52:27.367Z,27.73
2017-11-29T23:54:55.432Z,28.03
2017-11-29T23:57:23.977Z,30.70
2017-11-29T23:59:52.056Z,31.53
